Time;durP1;ratioP1;P1;durP2;ratioP2;P2;SDS_P1;SDS_P2;PMS_P1;PMS_P2;Temp;Humidity;BMP_temperature;BMP_pressure;BME280_temperature;BME280_humidity;BME280_pressure;Samples;Min_cycle;Max_cycle;Signal;HPM_P1;HPM_P2
2023/05/05 00:01:07;;;;;;;13.52;5.85;;;11.10;99.90;;;;;;5098207;28;20032;-58
2023/05/05 00:03:34;;;;;;;11.82;6.35;;;11.10;99.90;;;;;;5096338;28;20048;-58
2023/05/05 00:06:00;;;;;;;11.20;5.68;;;11.10;99.90;;;;;;5096289;28;20126;-58
2023/05/05 00:08:25;;;;;;;16.27;6.28;;;11.00;99.90;;;;;;5097832;28;20086;-58
2023/05/05 00:10:52;;;;;;;13.38;5.75;;;11.00;99.90;;;;;;5095618;28;20051;-58
2023/05/05 00:13:18;;;;;;;10.88;5.40;;;11.00;99.90;;;;;;5087419;28;20499;-58
2023/05/05 00:15:46;;;;;;;15.02;6.00;;;11.00;99.90;;;;;;5095732;28;20070;-58
2023/05/05 00:18:13;;;;;;;10.98;5.72;;;11.00;99.90;;;;;;5097527;28;20036;-58
2023/05/05 00:20:39;;;;;;;10.43;5.50;;;11.00;99.90;;;;;;5097036;28;20499;-59
2023/05/05 00:23:05;;;;;;;11.45;5.63;;;11.00;99.90;;;;;;5086470;28;20044;-58
2023/05/05 00:25:30;;;;;;;10.52;5.22;;;11.00;99.90;;;;;;5097525;28;20046;-58
2023/05/05 00:27:56;;;;;;;10.93;5.38;;;10.90;99.90;;;;;;5092309;28;20048;-58
2023/05/05 00:30:22;;;;;;;11.18;5.50;;;11.00;99.90;;;;;;5095301;28;20068;-58
2023/05/05 00:32:48;;;;;;;10.55;5.28;;;10.90;99.90;;;;;;5095454;28;20072;-58
2023/05/05 00:35:17;;;;;;;14.40;5.97;;;10.90;99.90;;;;;;5097590;28;20131;-58
2023/05/05 00:37:43;;;;;;;13.52;5.88;;;11.00;99.90;;;;;;5096508;28;20051;-58
2023/05/05 00:40:10;;;;;;;12.57;5.45;;;11.00;99.90;;;;;;5096161;28;20031;-58
2023/05/05 00:42:42;;;;;;;11.18;5.22;;;11.00;99.90;;;;;;5097349;28;20044;-57
2023/05/05 00:45:13;;;;;;;13.25;5.65;;;11.00;99.90;;;;;;5094807;28;20149;-59
2023/05/05 00:47:41;;;;;;;11.25;5.90;;;11.00;99.90;;;;;;5095983;28;20051;-58
2023/05/05 00:50:08;;;;;;;10.52;4.88;;;11.00;99.90;;;;;;5095412;28;20040;-58
2023/05/05 00:52:37;;;;;;;10.05;5.70;;;11.00;99.90;;;;;;5096773;28;20157;-58
2023/05/05 00:55:07;;;;;;;10.55;5.25;;;11.00;99.90;;;;;;5096239;28;20036;-58
2023/05/05 00:57:34;;;;;;;11.70;5.43;;;11.00;99.90;;;;;;5094902;28;20058;-58
2023/05/05 01:00:01;;;;;;;10.52;5.03;;;11.00;99.90;;;;;;5096565;28;20576;-58
2023/05/05 01:02:27;;;;;;;12.52;5.50;;;11.00;99.90;;;;;;5094440;28;20047;-58
2023/05/05 01:04:54;;;;;;;11.48;5.15;;;10.90;99.90;;;;;;5082947;28;20344;-58
2023/05/05 01:07:38;;;;;;;12.43;5.07;;;11.00;99.90;;;;;;5095524;28;20040;-58
2023/05/05 01:10:35;;;;;;;12.55;5.20;;;11.00;99.90;;;;;;5095317;28;20507;-58
2023/05/05 01:13:04;;;;;;;12.38;5.57;;;10.90;99.90;;;;;;5066271;28;20048;-58
2023/05/05 01:15:45;;;;;;;12.90;6.18;;;10.90;99.90;;;;;;5094763;28;20051;-58
2023/05/05 01:18:26;;;;;;;13.30;5.15;;;10.80;99.90;;;;;;5090215;28;20043;-58
2023/05/05 01:21:05;;;;;;;12.15;5.43;;;10.80;99.90;;;;;;5095484;28;20055;-58
2023/05/05 01:23:59;;;;;;;11.63;5.38;;;10.80;99.90;;;;;;5092976;28;20092;-58
2023/05/05 01:26:53;;;;;;;12.02;5.88;;;10.70;99.90;;;;;;5069161;28;20474;-58
2023/05/05 01:29:45;;;;;;;13.13;5.63;;;10.70;99.90;;;;;;5095100;28;20048;-58
2023/05/05 01:32:19;;;;;;;12.02;5.57;;;10.60;99.90;;;;;;5091577;28;20040;-58
2023/05/05 01:35:05;;;;;;;14.55;6.50;;;10.60;99.90;;;;;;5096609;28;20125;-58
2023/05/05 01:37:47;;;;;;;11.43;6.32;;;10.60;99.90;;;;;;5094785;28;20055;-56
2023/05/05 01:40:14;;;;;;;;;;;10.50;99.90;;;;;;5092866;28;20046;-58
2023/05/05 01:42:42;;;;;;;12.48;5.50;;;10.50;99.90;;;;;;5100219;28;20018;-59
2023/05/05 01:45:10;;;;;;;10.88;5.00;;;10.40;99.90;;;;;;5093557;28;20128;-58
2023/05/05 01:47:38;;;;;;;12.38;5.88;;;10.50;99.90;;;;;;5097011;28;20067;-57
2023/05/05 01:50:05;;;;;;;11.30;5.85;;;10.40;99.90;;;;;;5094469;28;20155;-60
2023/05/05 01:52:32;;;;;;;11.13;5.55;;;10.40;99.90;;;;;;5095819;28;20051;-59
2023/05/05 01:55:00;;;;;;;10.60;5.40;;;10.50;99.90;;;;;;5095714;28;20040;-59
2023/05/05 01:57:28;;;;;;;12.10;5.50;;;10.40;99.90;;;;;;5094924;28;20084;-58
2023/05/05 01:59:55;;;;;;;13.18;6.10;;;10.50;99.90;;;;;;5096436;28;20040;-59
2023/05/05 02:02:24;;;;;;;9.20;5.57;;;10.40;99.90;;;;;;5092897;28;20082;-59
2023/05/05 02:04:52;;;;;;;12.18;5.93;;;10.50;99.90;;;;;;5095632;28;20078;-59
2023/05/05 02:07:19;;;;;;;13.35;5.68;;;10.50;99.90;;;;;;5093226;28;20035;-58
2023/05/05 02:09:46;;;;;;;12.45;5.95;;;10.50;99.90;;;;;;5094463;28;20484;-58
2023/05/05 02:12:13;;;;;;;11.23;5.63;;;10.50;99.90;;;;;;5095722;28;20038;-58
2023/05/05 02:14:41;;;;;;;11.15;5.45;;;10.40;99.90;;;;;;5096316;28;20039;-58
2023/05/05 02:17:08;;;;;;;10.93;5.78;;;10.40;99.90;;;;;;5100157;28;20039;-58
2023/05/05 02:19:38;;;;;;;10.40;5.70;;;10.40;99.90;;;;;;5097129;28;20036;-58
2023/05/05 02:22:05;;;;;;;12.40;5.78;;;10.50;99.90;;;;;;5100143;28;20088;-58
2023/05/05 02:24:30;;;;;;;11.68;5.95;;;10.50;99.90;;;;;;5098834;28;20040;-58
2023/05/05 02:27:01;;;;;;;12.70;5.82;;;10.50;99.90;;;;;;5091733;28;20036;-58
2023/05/05 02:29:45;;;;;;;11.43;5.75;;;10.50;99.90;;;;;;5098633;28;20036;-58
2023/05/05 02:32:19;;;;;;;14.07;5.85;;;10.50;99.90;;;;;;5097232;28;20078;-58
2023/05/05 02:34:46;;;;;;;9.88;5.18;;;10.50;99.90;;;;;;5099991;28;20036;-58
2023/05/05 02:37:17;;;;;;;11.90;5.45;;;10.50;99.90;;;;;;5097358;28;20089;-58
2023/05/05 02:40:00;;;;;;;11.38;5.45;;;10.50;99.90;;;;;;5097407;28;20071;-58
2023/05/05 02:42:35;;;;;;;11.95;5.07;;;10.50;99.90;;;;;;5099109;28;20055;-58
2023/05/05 02:45:06;;;;;;;10.52;5.53;;;10.50;99.90;;;;;;5097558;28;20052;-58
2023/05/05 02:47:35;;;;;;;9.60;5.43;;;10.50;99.90;;;;;;5097919;28;20051;-58
2023/05/05 02:50:05;;;;;;;10.45;5.95;;;10.50;99.90;;;;;;5096969;28;20048;-58
2023/05/05 02:52:32;;;;;;;13.73;6.43;;;10.50;99.90;;;;;;5098518;28;20060;-58
2023/05/05 02:54:59;;;;;;;10.32;5.03;;;10.50;99.90;;;;;;5098434;28;20060;-58
2023/05/05 02:57:34;;;;;;;9.23;5.00;;;10.60;99.90;;;;;;5097484;28;20050;-58
2023/05/05 03:00:17;;;;;;;14.63;5.78;;;10.50;99.90;;;;;;5097509;28;20047;-58
2023/05/05 03:02:56;;;;;;;11.52;5.05;;;10.50;99.90;;;;;;5095121;28;20063;-58
2023/05/05 03:05:24;;;;;;;9.52;5.50;;;10.50;99.90;;;;;;5096291;28;20089;-58
2023/05/05 03:08:04;;;;;;;11.75;5.55;;;10.50;99.90;;;;;;5097175;28;20043;-58
2023/05/05 03:10:38;;;;;;;11.90;5.40;;;10.50;99.90;;;;;;5096767;28;20044;-58
2023/05/05 03:13:08;;;;;;;13.00;5.75;;;10.40;99.90;;;;;;5099021;28;20104;-58
2023/05/05 03:15:42;;;;;;;11.15;5.00;;;10.40;99.90;;;;;;5097102;28;20390;-59
2023/05/05 03:18:09;;;;;;;10.93;5.28;;;10.40;99.90;;;;;;5095077;28;20050;-58
2023/05/05 03:20:39;;;;;;;10.73;5.55;;;10.30;99.90;;;;;;5098082;28;20051;-57
2023/05/05 03:23:06;;;;;;;11.10;5.78;;;10.40;99.90;;;;;;5097296;28;20043;-57
2023/05/05 03:25:45;;;;;;;9.90;5.60;;;10.30;99.90;;;;;;5098793;28;20039;-56
2023/05/05 03:28:11;;;;;;;9.77;5.32;;;10.30;99.90;;;;;;5097045;28;20057;-57
2023/05/05 03:30:37;;;;;;;13.32;5.63;;;10.30;99.90;;;;;;5098294;28;20043;-57
2023/05/05 03:33:02;;;;;;;10.38;5.47;;;10.30;99.90;;;;;;5096992;28;20058;-55
2023/05/05 03:35:28;;;;;;;12.25;6.28;;;10.30;99.90;;;;;;5098077;28;20058;-56
2023/05/05 03:37:56;;;;;;;12.05;6.10;;;10.30;99.90;;;;;;5097793;28;20036;-57
2023/05/05 03:40:22;;;;;;;14.65;5.40;;;10.30;99.90;;;;;;5096685;28;20140;-56
2023/05/05 03:42:48;;;;;;;10.55;5.30;;;10.30;99.90;;;;;;5098142;28;20048;-56
2023/05/05 03:45:14;;;;;;;10.23;5.88;;;10.40;99.90;;;;;;5095776;28;20082;-56
2023/05/05 03:47:39;;;;;;;11.32;5.55;;;10.40;99.90;;;;;;5098199;28;20028;-56
2023/05/05 03:50:06;;;;;;;11.25;6.40;;;10.40;99.90;;;;;;5096288;28;20391;-57
2023/05/05 03:52:31;;;;;;;12.60;6.00;;;10.40;99.90;;;;;;5097799;28;20056;-56
2023/05/05 03:54:58;;;;;;;10.60;5.22;;;10.50;99.90;;;;;;5097243;28;20050;-57
2023/05/05 03:57:25;;;;;;;12.50;5.10;;;10.50;99.90;;;;;;5086094;28;20036;-57
2023/05/05 03:59:51;;;;;;;12.77;5.40;;;10.50;99.90;;;;;;5097691;28;20040;-57
2023/05/05 04:02:17;;;;;;;12.48;5.32;;;10.50;99.90;;;;;;5095531;28;20054;-57
2023/05/05 04:04:43;;;;;;;11.65;5.60;;;10.60;99.90;;;;;;5097321;28;20484;-57
2023/05/05 04:07:10;;;;;;;12.32;5.43;;;10.60;99.90;;;;;;5082711;28;20104;-56
2023/05/05 04:09:38;;;;;;;11.80;6.13;;;10.60;99.90;;;;;;5097459;28;20040;-57
2023/05/05 04:12:04;;;;;;;12.55;6.00;;;10.60;99.90;;;;;;5097499;28;20040;-56
2023/05/05 04:14:29;;;;;;;10.00;5.60;;;10.70;99.90;;;;;;5095532;28;20072;-57
2023/05/05 04:16:55;;;;;;;10.50;5.45;;;10.60;99.90;;;;;;5097633;28;20078;-57
2023/05/05 04:19:21;;;;;;;11.13;5.93;;;10.50;99.90;;;;;;5095764;28;20037;-54
2023/05/05 04:21:46;;;;;;;11.43;5.63;;;10.70;99.90;;;;;;5097899;28;20032;-57
2023/05/05 04:24:12;;;;;;;14.48;6.20;;;10.70;99.90;;;;;;5095718;28;20089;-58
2023/05/05 04:26:38;;;;;;;12.32;5.68;;;10.60;99.90;;;;;;5097042;28;20388;-59
2023/05/05 04:29:03;;;;;;;12.02;5.82;;;10.70;99.90;;;;;;5096449;28;20032;-63
2023/05/05 04:31:30;;;;;;;11.90;6.53;;;10.60;99.90;;;;;;5089046;28;20077;-63
2023/05/05 04:33:56;;;;;;;9.93;5.85;;;10.60;99.90;;;;;;5097420;28;20599;-60
2023/05/05 04:36:22;;;;;;;15.05;7.20;;;10.60;99.90;;;;;;5094722;28;20064;-61
2023/05/05 04:38:47;;;;;;;12.38;6.20;;;10.60;99.90;;;;;;5097642;28;20040;-59
2023/05/05 04:41:13;;;;;;;11.80;6.03;;;10.50;99.90;;;;;;5094856;28;20099;-60
2023/05/05 04:43:39;;;;;;;10.88;6.53;;;10.40;99.90;;;;;;5096735;28;20059;-60
2023/05/05 04:46:05;;;;;;;13.52;6.32;;;10.30;99.90;;;;;;5094459;28;20051;-60
2023/05/05 04:48:31;;;;;;;10.90;6.97;;;10.30;99.90;;;;;;5091177;28;20032;-59
2023/05/05 04:50:56;;;;;;;11.88;6.35;;;10.30;99.90;;;;;;5097200;28;20044;-60
2023/05/05 04:53:22;;;;;;;12.98;7.05;;;10.30;99.90;;;;;;5099974;28;20040;-61
2023/05/05 04:55:47;;;;;;;13.38;6.22;;;10.30;99.90;;;;;;5097274;28;20093;-60
2023/05/05 04:58:13;;;;;;;11.52;7.00;;;10.30;99.90;;;;;;5094842;28;20043;-59
2023/05/05 05:00:39;;;;;;;12.13;6.30;;;10.30;99.90;;;;;;5096952;28;20048;-59
2023/05/05 05:03:05;;;;;;;12.75;6.50;;;10.20;99.90;;;;;;5095588;28;20115;-58
2023/05/05 05:05:30;;;;;;;11.25;5.97;;;10.20;99.90;;;;;;5095915;28;20099;-59
2023/05/05 05:07:56;;;;;;;17.50;7.50;;;10.20;99.90;;;;;;5088800;28;20071;-59
2023/05/05 05:10:22;;;;;;;10.73;6.15;;;10.10;99.90;;;;;;5095082;28;20055;-60
2023/05/05 05:12:47;;;;;;;12.77;6.55;;;10.20;99.90;;;;;;5096440;28;20040;-59
2023/05/05 05:15:13;;;;;;;14.07;6.65;;;10.10;99.90;;;;;;5094036;28;20726;-58
2023/05/05 05:17:39;;;;;;;12.15;7.05;;;10.10;99.90;;;;;;5093751;28;20158;-59
2023/05/05 05:20:06;;;;;;;11.65;6.88;;;10.10;99.90;;;;;;5087208;28;20036;-58
2023/05/05 05:22:31;;;;;;;12.25;6.45;;;10.00;99.90;;;;;;5095711;28;20896;-58
2023/05/05 05:24:57;;;;;;;12.55;6.85;;;10.10;99.90;;;;;;5095778;28;20032;-62
2023/05/05 05:27:23;;;;;;;11.80;6.43;;;10.00;99.90;;;;;;5093902;28;20047;-61
2023/05/05 05:29:48;;;;;;;11.65;6.82;;;10.10;99.90;;;;;;5096911;28;20082;-60
2023/05/05 05:32:14;;;;;;;13.10;6.93;;;10.00;99.90;;;;;;5094719;28;20180;-59
2023/05/05 05:34:40;;;;;;;12.13;6.63;;;10.00;99.90;;;;;;5097423;28;20039;-58
2023/05/05 05:37:05;;;;;;;11.98;6.32;;;10.10;99.90;;;;;;5095299;28;20028;-58
2023/05/05 05:39:31;;;;;;;12.85;6.75;;;10.10;99.90;;;;;;5096739;28;20072;-57
2023/05/05 05:41:57;;;;;;;13.93;6.80;;;10.00;99.90;;;;;;5091582;28;20112;-58
2023/05/05 05:44:22;;;;;;;12.30;6.30;;;10.10;99.90;;;;;;5090399;28;20039;-57
2023/05/05 05:46:48;;;;;;;12.05;6.85;;;10.20;99.90;;;;;;5089878;28;20127;-57
2023/05/05 05:49:15;;;;;;;13.57;6.97;;;10.20;99.90;;;;;;5092377;28;20080;-58
2023/05/05 05:51:40;;;;;;;12.63;7.35;;;10.40;99.90;;;;;;5097422;28;20028;-58
2023/05/05 05:54:06;;;;;;;11.40;7.00;;;10.40;99.90;;;;;;5092806;28;20087;-57
2023/05/05 05:56:32;;;;;;;11.75;6.82;;;10.60;99.90;;;;;;5096544;28;20078;-58
2023/05/05 05:58:58;;;;;;;11.98;6.57;;;10.60;99.90;;;;;;5095886;28;20055;-57
2023/05/05 06:01:23;;;;;;;14.07;7.65;;;10.70;99.90;;;;;;5095968;28;20606;-58
2023/05/05 06:03:49;;;;;;;13.07;6.93;;;10.80;99.90;;;;;;5094301;28;20078;-57
2023/05/05 06:06:15;;;;;;;16.17;7.60;;;10.80;99.90;;;;;;5094662;28;20051;-57
2023/05/05 06:08:40;;;;;;;10.30;7.05;;;10.80;99.90;;;;;;5097984;28;20499;-57
2023/05/05 06:11:06;;;;;;;10.30;6.65;;;10.90;99.90;;;;;;5095076;28;20040;-57
2023/05/05 06:13:33;;;;;;;12.60;6.80;;;11.00;99.90;;;;;;5098116;28;20028;-57
2023/05/05 06:15:58;;;;;;;11.52;6.95;;;11.10;99.90;;;;;;5096524;28;20059;-57
2023/05/05 06:18:24;;;;;;;11.10;7.45;;;11.10;99.90;;;;;;5096375;28;20040;-58
2023/05/05 06:20:51;;;;;;;10.38;7.25;;;11.20;99.90;;;;;;5097315;28;20040;-58
2023/05/05 06:23:17;;;;;;;11.25;6.22;;;11.40;99.90;;;;;;5095576;28;20154;-57
2023/05/05 06:25:42;;;;;;;11.45;6.95;;;11.50;99.90;;;;;;5097073;28;20044;-57
2023/05/05 06:28:08;;;;;;;10.32;6.43;;;11.40;99.90;;;;;;5095336;28;20048;-58
2023/05/05 06:30:33;;;;;;;13.80;6.40;;;11.40;99.90;;;;;;5096886;28;20086;-58
2023/05/05 06:32:59;;;;;;;11.88;6.75;;;11.30;99.90;;;;;;5096046;28;20044;-58
2023/05/05 06:35:25;;;;;;;11.30;6.32;;;11.30;99.90;;;;;;5093175;28;20042;-57
2023/05/05 06:37:51;;;;;;;10.60;6.90;;;11.30;99.90;;;;;;5094924;28;20044;-57
2023/05/05 06:40:16;;;;;;;13.75;7.25;;;11.30;99.90;;;;;;5094279;28;20044;-56
2023/05/05 06:42:42;;;;;;;11.88;7.00;;;11.40;99.90;;;;;;5096524;28;20093;-57
2023/05/05 06:45:08;;;;;;;11.82;7.47;;;11.40;99.90;;;;;;5093925;28;20558;-58
2023/05/05 06:47:34;;;;;;;11.85;6.78;;;11.30;99.90;;;;;;5095783;28;20051;-57
2023/05/05 06:49:59;;;;;;;12.88;7.15;;;11.40;99.90;;;;;;5094647;28;20486;-58
2023/05/05 06:52:25;;;;;;;11.02;7.80;;;11.60;99.90;;;;;;5095697;28;20047;-58
2023/05/05 06:54:51;;;;;;;11.77;6.45;;;11.40;99.90;;;;;;5096411;28;20148;-58
2023/05/05 06:57:16;;;;;;;12.55;7.63;;;11.30;99.90;;;;;;5095153;28;20095;-59
2023/05/05 06:59:42;;;;;;;13.95;7.00;;;11.50;99.90;;;;;;5095527;28;20040;-58
2023/05/05 07:02:08;;;;;;;13.35;7.10;;;11.50;99.90;;;;;;5081140;28;20063;-57
2023/05/05 07:04:33;;;;;;;12.90;7.10;;;11.60;99.90;;;;;;5095957;28;20101;-57
2023/05/05 07:06:59;;;;;;;11.48;6.97;;;11.70;99.90;;;;;;5094155;28;20047;-58
2023/05/05 07:09:25;;;;;;;13.23;7.38;;;11.80;99.90;;;;;;5095815;28;20338;-58
2023/05/05 07:11:51;;;;;;;10.35;6.95;;;12.00;99.90;;;;;;5094245;28;20043;-58
2023/05/05 07:14:16;;;;;;;11.57;7.18;;;12.00;99.90;;;;;;5094417;28;20040;-57
2023/05/05 07:16:42;;;;;;;11.55;7.07;;;12.20;99.90;;;;;;5094923;28;20104;-57
2023/05/05 07:19:08;;;;;;;11.55;7.80;;;12.10;99.90;;;;;;5093646;28;20040;-57
2023/05/05 07:21:34;;;;;;;14.90;8.00;;;12.30;99.90;;;;;;5095857;28;20489;-57
2023/05/05 07:24:01;;;;;;;13.40;7.60;;;12.30;99.90;;;;;;5093256;28;20119;-57
2023/05/05 07:26:27;;;;;;;12.93;7.57;;;12.40;99.90;;;;;;5095241;28;20036;-57
2023/05/05 07:28:54;;;;;;;14.57;7.65;;;12.60;99.90;;;;;;5094920;28;20071;-57
2023/05/05 07:31:20;;;;;;;11.27;8.00;;;12.80;99.90;;;;;;5095141;28;20051;-57
2023/05/05 07:33:46;;;;;;;13.70;8.05;;;12.90;99.90;;;;;;5096522;28;20500;-58
2023/05/05 07:36:12;;;;;;;10.80;7.65;;;12.90;99.90;;;;;;5093974;28;20124;-57
2023/05/05 07:38:38;;;;;;;11.25;7.43;;;13.00;99.90;;;;;;5096240;28;20119;-56
2023/05/05 07:41:03;;;;;;;11.32;8.48;;;13.20;99.90;;;;;;5094060;28;20048;-57
2023/05/05 07:43:29;;;;;;;16.00;8.45;;;13.10;99.90;;;;;;5096672;28;20052;-57
2023/05/05 07:45:55;;;;;;;12.65;8.50;;;13.30;99.90;;;;;;5075576;28;20036;-57
2023/05/05 07:48:20;;;;;;;14.30;8.40;;;13.40;99.90;;;;;;5095046;28;20032;-58
2023/05/05 07:50:46;;;;;;;16.02;8.82;;;13.60;99.90;;;;;;5095189;28;20127;-57
2023/05/05 07:53:12;;;;;;;12.88;8.48;;;13.60;99.90;;;;;;5094075;28;20159;-58
2023/05/05 07:55:37;;;;;;;14.38;8.13;;;13.70;99.90;;;;;;5096336;28;20043;-58
2023/05/05 07:58:03;;;;;;;14.48;8.82;;;13.90;99.90;;;;;;5094229;28;20054;-58
2023/05/05 08:00:29;;;;;;;14.38;8.52;;;14.00;99.90;;;;;;5095861;28;20040;-57
2023/05/05 08:02:54;;;;;;;11.90;8.18;;;14.10;99.90;;;;;;5093989;28;20055;-58
2023/05/05 08:05:20;;;;;;;12.02;8.32;;;14.00;99.90;;;;;;5095028;28;20572;-57
2023/05/05 08:07:46;;;;;;;12.95;7.45;;;14.10;99.90;;;;;;5095004;28;20051;-57
2023/05/05 08:10:11;;;;;;;12.15;9.23;;;14.30;99.90;;;;;;5090900;28;20086;-57
2023/05/05 08:12:38;;;;;;;13.90;8.93;;;14.40;99.90;;;;;;5076761;28;20055;-57
2023/05/05 08:15:05;;;;;;;15.95;9.27;;;14.50;99.90;;;;;;5093770;28;20096;-59
2023/05/05 08:17:44;;;;;;;12.48;8.50;;;14.50;99.90;;;;;;5095086;28;20039;-57
2023/05/05 08:20:10;;;;;;;13.10;9.15;;;14.50;99.90;;;;;;5094375;28;20304;-57
2023/05/05 08:22:36;;;;;;;13.80;8.23;;;14.50;99.90;;;;;;5095084;28;20070;-57
2023/05/05 08:25:01;;;;;;;14.07;8.70;;;14.50;99.90;;;;;;5090428;28;20036;-57
2023/05/05 08:27:27;;;;;;;13.75;8.90;;;14.60;99.90;;;;;;5093161;28;20043;-57
2023/05/05 08:29:53;;;;;;;18.95;9.52;;;14.80;99.90;;;;;;5076381;28;20422;-57
2023/05/05 08:32:18;;;;;;;14.13;8.52;;;14.80;99.90;;;;;;5075562;28;20048;-62
2023/05/05 08:34:44;;;;;;;12.95;8.43;;;14.90;99.90;;;;;;5095230;28;20075;-57
2023/05/05 08:37:10;;;;;;;12.52;8.20;;;15.00;99.90;;;;;;5093301;28;20418;-57
2023/05/05 08:39:36;;;;;;;13.60;8.45;;;15.20;99.90;;;;;;5094733;28;20399;-57
2023/05/05 08:42:02;;;;;;;12.05;8.82;;;15.50;99.90;;;;;;5089138;28;20050;-58
2023/05/05 08:44:28;;;;;;;16.30;10.10;;;15.50;99.90;;;;;;5093650;28;20558;-57
2023/05/05 08:46:54;;;;;;;14.65;9.50;;;15.40;99.90;;;;;;5090999;28;20051;-56
2023/05/05 08:49:21;;;;;;;13.52;9.23;;;15.50;99.90;;;;;;5090332;28;20072;-57
2023/05/05 08:51:50;;;;;;;13.90;10.65;;;15.70;99.90;;;;;;5093117;28;20052;-58
2023/05/05 08:54:18;;;;;;;14.35;10.77;;;15.60;99.90;;;;;;5091434;28;20047;-57
2023/05/05 08:56:45;;;;;;;14.18;10.48;;;15.60;99.90;;;;;;5089755;28;20056;-57
2023/05/05 08:59:13;;;;;;;14.23;10.88;;;15.70;99.90;;;;;;5092862;28;20106;-57
2023/05/05 09:01:40;;;;;;;15.63;9.57;;;15.70;99.90;;;;;;5092275;28;20052;-57
2023/05/05 09:04:08;;;;;;;13.43;10.50;;;15.90;99.90;;;;;;5093821;28;20048;-57
2023/05/05 09:06:34;;;;;;;14.80;10.40;;;16.00;99.90;;;;;;5097207;28;20074;-57
2023/05/05 09:09:00;;;;;;;16.08;10.35;;;16.10;99.90;;;;;;5093619;28;20055;-57
2023/05/05 09:11:27;;;;;;;14.35;10.20;;;16.30;99.90;;;;;;5092331;28;20406;-57
2023/05/05 09:13:53;;;;;;;14.00;9.77;;;16.40;99.90;;;;;;5093702;28;20044;-57
2023/05/05 09:16:19;;;;;;;17.45;11.63;;;16.50;99.90;;;;;;5093230;28;20040;-57
2023/05/05 09:18:45;;;;;;;14.90;11.10;;;16.50;99.90;;;;;;5092460;28;20449;-57
2023/05/05 09:21:21;;;;;;;16.80;12.30;;;16.80;99.90;;;;;;5093713;28;20384;-57
2023/05/05 09:24:06;;;;;;;16.83;10.82;;;16.60;99.90;;;;;;5091780;28;20107;-57
2023/05/05 09:26:33;;;;;;;16.13;11.88;;;16.70;99.90;;;;;;5093135;28;20127;-57
2023/05/05 09:29:01;;;;;;;17.35;11.98;;;16.50;99.90;;;;;;5076229;28;20047;-57
2023/05/05 09:31:28;;;;;;;18.33;12.55;;;16.50;99.90;;;;;;5091882;28;20055;-58
2023/05/05 09:33:55;;;;;;;19.50;12.48;;;16.50;99.90;;;;;;5092428;28;20102;-57
2023/05/05 09:36:41;;;;;;;17.35;11.48;;;16.70;99.90;;;;;;5091548;28;20052;-57
2023/05/05 09:39:07;;;;;;;16.30;12.43;;;17.10;99.90;;;;;;5088929;28;20550;-57
2023/05/05 09:41:41;;;;;;;15.70;11.88;;;17.00;99.90;;;;;;5075326;28;20036;-57
2023/05/05 09:44:07;;;;;;;18.02;13.60;;;17.00;99.90;;;;;;5091349;28;20063;-58
2023/05/05 09:46:33;;;;;;;18.23;12.43;;;16.90;99.90;;;;;;5092022;28;20052;-57
2023/05/05 09:49:22;;;;;;;18.10;12.52;;;17.00;99.90;;;;;;5088510;28;20044;-58
2023/05/05 09:51:48;;;;;;;19.23;13.18;;;17.00;99.90;;;;;;5089798;28;20044;-57
2023/05/05 09:54:26;;;;;;;14.95;11.55;;;17.00;99.90;;;;;;5085180;28;20051;-57
2023/05/05 09:56:52;;;;;;;14.55;11.88;;;17.10;99.90;;;;;;5086210;28;20051;-57
2023/05/05 09:59:19;;;;;;;18.17;12.60;;;17.20;99.90;;;;;;5087615;28;20032;-57
2023/05/05 10:01:45;;;;;;;18.55;13.13;;;17.40;99.90;;;;;;5089038;28;20079;-58
2023/05/05 10:04:28;;;;;;;18.05;12.43;;;17.40;99.90;;;;;;5075130;28;20052;-57
2023/05/05 10:06:55;;;;;;;16.65;12.25;;;17.60;99.90;;;;;;5090290;28;20597;-57
2023/05/05 10:09:25;;;;;;;18.42;13.23;;;17.80;99.90;;;;;;5092199;28;20047;-57
2023/05/05 10:11:51;;;;;;;15.63;12.65;;;17.60;99.90;;;;;;5092804;28;20131;-57
2023/05/05 10:14:18;;;;;;;18.35;13.82;;;17.40;99.90;;;;;;5092420;28;20510;-57
2023/05/05 10:16:49;;;;;;;19.20;12.65;;;17.30;99.90;;;;;;5074769;28;20131;-57
2023/05/05 10:19:17;;;;;;;18.30;13.57;;;17.70;99.90;;;;;;5091463;28;20040;-58
2023/05/05 10:21:52;;;;;;;18.50;13.45;;;17.80;99.90;;;;;;5093934;28;20060;-57
2023/05/05 10:24:35;;;;;;;23.70;16.42;;;18.10;99.90;;;;;;5091841;28;20066;-58
2023/05/05 10:27:06;;;;;;;20.80;16.70;;;17.90;99.90;;;;;;5090886;28;20054;-57
2023/05/05 10:29:44;;;;;;;21.67;16.02;;;17.70;99.90;;;;;;5091609;28;20032;-57
2023/05/05 10:32:26;;;;;;;20.70;15.95;;;17.90;99.90;;;;;;5075999;28;20044;-57
2023/05/05 10:34:53;;;;;;;;;;;17.90;99.90;;;;;;5093224;28;20051;-57
2023/05/05 10:37:20;;;;;;;25.58;18.00;;;17.70;99.90;;;;;;5089013;28;19931;-55
2023/05/05 10:39:49;;;;;;;23.70;18.27;;;17.80;99.90;;;;;;5078261;28;20177;-58
2023/05/05 10:42:16;;;;;;;27.23;19.88;;;17.80;99.90;;;;;;5094188;28;20039;-57
2023/05/05 10:44:42;;;;;;;26.65;20.63;;;17.80;99.90;;;;;;5093335;28;20059;-57
2023/05/05 10:47:08;;;;;;;26.63;20.40;;;17.90;99.90;;;;;;5094475;28;20040;-57
2023/05/05 10:49:34;;;;;;;26.40;19.80;;;17.90;99.90;;;;;;5093685;28;20054;-58
2023/05/05 10:52:09;;;;;;;25.90;19.83;;;18.00;99.90;;;;;;5099149;28;20075;-57
2023/05/05 10:54:48;;;;;;;27.00;20.42;;;17.80;99.90;;;;;;5098211;28;20498;-57
2023/05/05 10:57:17;;;;;;;26.38;20.38;;;17.70;99.90;;;;;;5098333;28;20395;-57
2023/05/05 10:59:43;;;;;;;30.65;22.33;;;17.90;99.90;;;;;;5096975;28;20069;-57
2023/05/05 11:02:25;;;;;;;29.02;19.88;;;17.90;99.90;;;;;;5097308;28;20060;-57
2023/05/05 11:05:16;;;;;;;26.75;20.05;;;18.00;99.90;;;;;;5099189;28;20638;-57
2023/05/05 11:07:43;;;;;;;23.60;18.35;;;18.00;99.90;;;;;;5098550;28;20525;-57
2023/05/05 11:10:11;;;;;;;23.17;16.63;;;18.20;99.90;;;;;;5097999;28;20112;-57
2023/05/05 11:13:00;;;;;;;21.23;14.45;;;18.50;99.90;;;;;;5098668;28;20144;-58
2023/05/05 11:15:26;;;;;;;19.48;12.35;;;18.50;99.90;;;;;;5098568;28;20521;-57
2023/05/05 11:17:56;;;;;;;21.17;15.95;;;18.40;99.90;;;;;;5100831;28;20052;-57
2023/05/05 11:20:51;;;;;;;26.15;16.92;;;18.60;99.90;;;;;;5099841;28;20094;-57
2023/05/05 11:23:19;;;;;;;26.23;17.38;;;18.80;99.90;;;;;;5072550;28;20068;-57
2023/05/05 11:25:46;;;;;;;21.45;15.80;;;18.60;99.90;;;;;;5101053;28;20048;-57
2023/05/05 11:28:15;;;;;;;21.80;16.13;;;18.90;99.90;;;;;;5071265;28;20048;-57
2023/05/05 11:30:57;;;;;;;21.27;16.27;;;18.70;99.90;;;;;;5099945;28;20032;-57
2023/05/05 11:33:29;;;;;;;22.10;17.35;;;18.50;99.90;;;;;;5099459;28;20413;-57
2023/05/05 11:36:02;;;;;;;22.83;16.30;;;18.40;99.90;;;;;;5097085;28;20047;-57
2023/05/05 11:38:55;;;;;;;22.90;15.27;;;18.30;99.90;;;;;;5100326;28;20047;-58
2023/05/05 11:41:33;;;;;;;18.77;14.48;;;18.30;99.90;;;;;;5097475;28;20605;-57
2023/05/05 11:44:15;;;;;;;19.45;14.20;;;18.30;99.90;;;;;;5061066;28;20059;-57
2023/05/05 11:47:03;;;;;;;18.00;13.35;;;18.20;99.90;;;;;;5083581;28;20479;-57
2023/05/05 11:49:31;;;;;;;18.83;13.63;;;18.20;99.90;;;;;;5096043;28;20044;-57
2023/05/05 11:51:58;;;;;;;17.48;12.65;;;18.00;99.90;;;;;;5100229;28;20107;-57
2023/05/05 11:54:24;;;;;;;16.75;11.70;;;18.10;99.90;;;;;;5097434;28;20055;-57
2023/05/05 11:56:52;;;;;;;17.67;11.38;;;18.20;99.90;;;;;;5095474;28;20029;-57
2023/05/05 11:59:17;;;;;;;16.67;10.40;;;18.30;99.90;;;;;;5096281;28;20036;-57
2023/05/05 12:01:43;;;;;;;14.25;10.02;;;18.30;99.90;;;;;;5096999;28;20064;-57
2023/05/05 12:04:13;;;;;;;14.88;10.98;;;18.30;99.90;;;;;;5099887;28;20087;-57
2023/05/05 12:06:39;;;;;;;15.00;11.60;;;18.30;99.90;;;;;;5097971;28;20453;-56
2023/05/05 12:09:15;;;;;;;16.15;11.18;;;18.30;99.90;;;;;;5081550;28;20040;-57
2023/05/05 12:12:07;;;;;;;13.50;9.30;;;18.40;99.90;;;;;;5096769;28;20513;-57
2023/05/05 12:14:34;;;;;;;14.93;9.65;;;18.50;99.90;;;;;;5092382;28;20048;-57
2023/05/05 12:17:07;;;;;;;15.85;10.35;;;18.50;99.90;;;;;;5099275;28;20051;-57
2023/05/05 12:19:33;;;;;;;14.55;10.23;;;18.50;99.90;;;;;;5096523;28;20044;-58
2023/05/05 12:21:59;;;;;;;15.45;9.57;;;18.50;99.90;;;;;;5099416;28;20052;-57
2023/05/05 12:24:25;;;;;;;11.32;7.15;;;18.60;99.90;;;;;;5098203;28;20040;-58
2023/05/05 12:26:51;;;;;;;12.63;8.13;;;18.50;99.90;;;;;;5098544;28;20084;-57
2023/05/05 12:29:24;;;;;;;13.23;7.25;;;18.70;99.90;;;;;;5098650;28;20046;-58
2023/05/05 12:31:50;;;;;;;13.82;9.27;;;18.50;99.90;;;;;;5078817;28;20510;-57
2023/05/05 12:34:16;;;;;;;15.65;10.82;;;18.40;99.90;;;;;;5099247;28;20032;-57
2023/05/05 12:36:42;;;;;;;17.30;12.02;;;18.50;99.90;;;;;;5097417;28;20052;-57
2023/05/05 12:39:08;;;;;;;15.50;10.85;;;18.40;99.90;;;;;;5099301;28;20407;-57
2023/05/05 12:41:34;;;;;;;14.85;9.90;;;18.40;99.90;;;;;;5097878;28;20042;-57
2023/05/05 12:44:04;;;;;;;17.55;11.73;;;18.30;99.90;;;;;;5097016;28;20295;-57